createdAt,value
2019-01-30T00:00:32.626Z,5.73
2019-01-30T00:03:01.397Z,5.00
2019-01-30T00:05:29.697Z,5.87
2019-01-30T00:07:58.261Z,5.67
2019-01-30T00:10:26.867Z,5.57
2019-01-30T00:12:55.139Z,5.60
2019-01-30T00:15:23.428Z,5.63
2019-01-30T00:17:51.770Z,5.27
2019-01-30T00:20:20.299Z,5.20
2019-01-30T00:22:48.583Z,5.70
2019-01-30T00:25:16.947Z,5.37
2019-01-30T00:27:45.475Z,5.20
2019-01-30T00:30:17.197Z,4.93
2019-01-30T00:32:45.479Z,5.30
2019-01-30T00:35:13.838Z,4.97
2019-01-30T00:37:42.112Z,4.93
2019-01-30T00:40:13.608Z,4.83
2019-01-30T00:42:41.884Z,4.97
2019-01-30T00:45:13.131Z,5.60
2019-01-30T00:47:41.405Z,4.80
2019-01-30T00:50:18.285Z,5.03
2019-01-30T00:52:46.633Z,4.70
2019-01-30T00:55:15.441Z,4.67
2019-01-30T00:57:43.728Z,4.93
2019-01-30T01:00:26.237Z,4.90
2019-01-30T01:02:54.955Z,4.30
2019-01-30T01:05:23.288Z,4.83
2019-01-30T01:07:52.057Z,4.27
2019-01-30T01:10:21.377Z,4.60
2019-01-30T01:12:50.038Z,4.47
2019-01-30T01:15:18.311Z,4.50
2019-01-30T01:17:46.670Z,4.97
2019-01-30T01:20:22.689Z,4.87
2019-01-30T01:22:51.005Z,4.60
2019-01-30T01:25:19.363Z,4.40
2019-01-30T01:27:47.885Z,4.00
2019-01-30T01:30:27.358Z,4.13
2019-01-30T01:32:55.811Z,3.87
2019-01-30T01:35:24.149Z,4.00
2019-01-30T01:37:52.577Z,3.87
2019-01-30T01:40:20.909Z,4.40
2019-01-30T01:42:49.202Z,4.60
2019-01-30T01:45:25.180Z,4.20
2019-01-30T01:47:53.531Z,4.13
2019-01-30T01:50:22.643Z,4.17
2019-01-30T01:52:50.926Z,4.10
2019-01-30T01:55:20.007Z,4.13
2019-01-30T01:57:48.285Z,4.50
2019-01-30T02:00:19.991Z,4.37
2019-01-30T02:02:48.509Z,4.07
2019-01-30T02:05:18.834Z,4.47
2019-01-30T02:07:47.096Z,4.73
2019-01-30T02:10:17.825Z,4.17
2019-01-30T02:12:46.358Z,4.43
2019-01-30T02:15:16.759Z,4.70
2019-01-30T02:17:45.026Z,4.20
2019-01-30T02:20:18.809Z,3.63
2019-01-30T02:22:47.081Z,4.10
2019-01-30T02:25:15.380Z,4.40
2019-01-30T02:27:43.723Z,4.37
2019-01-30T02:30:15.301Z,4.43
2019-01-30T02:32:43.596Z,4.30
2019-01-30T02:35:12.254Z,4.87
2019-01-30T02:37:40.774Z,4.67
2019-01-30T02:40:17.443Z,4.83
2019-01-30T02:42:45.786Z,4.77
2019-01-30T02:45:19.562Z,4.80
2019-01-30T02:47:47.902Z,4.80
2019-01-30T02:50:18.235Z,5.30
2019-01-30T02:52:46.514Z,4.87
2019-01-30T02:55:16.744Z,5.47
2019-01-30T02:57:45.081Z,5.00
2019-01-30T03:00:21.667Z,4.80
2019-01-30T03:02:49.935Z,4.90
2019-01-30T03:05:18.292Z,4.90
2019-01-30T03:07:46.577Z,5.10
2019-01-30T03:10:17.854Z,4.67
2019-01-30T03:12:46.456Z,4.83
2019-01-30T03:15:19.424Z,4.50
2019-01-30T03:17:48.080Z,4.47
2019-01-30T03:20:21.577Z,5.10
2019-01-30T03:22:49.873Z,4.67
2019-01-30T03:25:20.083Z,4.40
2019-01-30T03:27:48.621Z,4.87
2019-01-30T03:30:31.720Z,4.80
2019-01-30T03:33:00.009Z,4.63
2019-01-30T03:35:28.653Z,4.60
2019-01-30T03:37:56.926Z,4.80
2019-01-30T03:40:25.219Z,4.47
2019-01-30T03:42:53.580Z,5.00
2019-01-30T03:45:23.493Z,4.27
2019-01-30T03:47:51.854Z,4.57
2019-01-30T03:50:20.120Z,4.37
2019-01-30T03:52:48.415Z,4.20
2019-01-30T03:55:21.003Z,4.10
2019-01-30T03:57:49.370Z,4.10
2019-01-30T04:00:25.832Z,4.70
2019-01-30T04:02:54.621Z,4.10
2019-01-30T04:05:23.147Z,4.20
2019-01-30T04:07:51.490Z,4.27
2019-01-30T04:10:21.720Z,4.10
2019-01-30T04:12:50.059Z,4.20
2019-01-30T04:15:18.486Z,4.20
2019-01-30T04:17:46.923Z,4.20
2019-01-30T04:20:20.166Z,4.40
2019-01-30T04:22:48.598Z,4.60
2019-01-30T04:25:16.926Z,3.93
2019-01-30T04:27:45.352Z,4.10
2019-01-30T04:30:18.851Z,4.40
2019-01-30T04:32:47.125Z,4.43
2019-01-30T04:35:15.568Z,4.07
2019-01-30T04:37:43.849Z,4.37
2019-01-30T04:40:14.982Z,4.07
2019-01-30T04:42:43.505Z,4.27
2019-01-30T04:45:20.539Z,4.07
2019-01-30T04:47:48.802Z,4.37
2019-01-30T04:50:17.167Z,4.67
2019-01-30T04:52:45.694Z,4.20
2019-01-30T04:55:14.767Z,4.50
2019-01-30T04:57:43.368Z,4.57
2019-01-30T05:00:14.864Z,4.93
2019-01-30T05:02:43.214Z,4.43
2019-01-30T05:05:12.643Z,4.40
2019-01-30T05:07:41.287Z,4.13
2019-01-30T05:10:11.810Z,4.40
2019-01-30T05:12:40.084Z,4.30
2019-01-30T05:15:11.587Z,4.20
2019-01-30T05:17:39.934Z,4.30
2019-01-30T05:20:11.684Z,4.83
2019-01-30T05:22:40.049Z,4.50
2019-01-30T05:25:09.764Z,3.97
2019-01-30T05:27:38.129Z,4.07
2019-01-30T05:30:15.204Z,4.33
2019-01-30T05:32:43.499Z,3.90
2019-01-30T05:35:11.841Z,4.10
2019-01-30T05:37:40.393Z,4.53
2019-01-30T05:40:11.884Z,4.43
2019-01-30T05:42:40.455Z,4.00
2019-01-30T05:45:11.639Z,4.30
2019-01-30T05:47:39.925Z,4.13
2019-01-30T05:50:09.942Z,4.17
2019-01-30T05:52:38.296Z,3.87
2019-01-30T05:55:08.783Z,3.90
2019-01-30T05:57:37.142Z,4.50
2019-01-30T06:00:08.759Z,3.97
2019-01-30T06:02:37.432Z,4.77
2019-01-30T06:05:06.838Z,4.37
2019-01-30T06:07:35.127Z,4.27
2019-01-30T06:10:05.096Z,4.80
2019-01-30T06:12:33.464Z,4.30
2019-01-30T06:15:04.649Z,4.13
2019-01-30T06:17:32.926Z,4.50
2019-01-30T06:20:01.459Z,5.03
2019-01-30T06:22:29.753Z,4.67
2019-01-30T06:24:58.305Z,5.20
2019-01-30T06:27:26.569Z,4.77
2019-01-30T06:29:54.858Z,4.73
2019-01-30T06:32:23.126Z,4.47
2019-01-30T06:34:51.668Z,4.97
2019-01-30T06:37:19.936Z,4.60
2019-01-30T06:39:48.228Z,5.30
2019-01-30T06:42:16.503Z,4.17
2019-01-30T06:44:44.791Z,4.97
2019-01-30T06:47:13.075Z,4.73
2019-01-30T06:49:41.367Z,5.13
2019-01-30T06:52:09.897Z,5.53
2019-01-30T06:54:38.201Z,5.90
2019-01-30T06:57:06.474Z,6.57
2019-01-30T06:59:35.004Z,6.37
2019-01-30T07:02:03.352Z,7.03
2019-01-30T07:04:31.894Z,7.53
2019-01-30T07:07:00.416Z,7.57
2019-01-30T07:09:29.027Z,7.77
2019-01-30T07:11:57.306Z,8.20
2019-01-30T07:14:25.837Z,9.60
2019-01-30T07:16:54.110Z,8.17
2019-01-30T07:19:22.476Z,7.47
2019-01-30T07:21:50.997Z,8.23
2019-01-30T07:24:19.290Z,8.20
2019-01-30T07:26:47.865Z,8.87
2019-01-30T07:29:16.207Z,9.10
2019-01-30T07:31:44.744Z,9.73
2019-01-30T07:34:13.071Z,9.50
2019-01-30T07:36:41.671Z,8.87
2019-01-30T07:39:10.060Z,9.53
2019-01-30T07:41:38.710Z,9.67
2019-01-30T07:44:07.064Z,8.70
2019-01-30T07:46:35.399Z,8.47
2019-01-30T07:49:03.703Z,9.77
2019-01-30T07:51:32.230Z,9.13
2019-01-30T07:54:04.468Z,9.13
2019-01-30T07:56:33.028Z,8.80
2019-01-30T07:59:01.312Z,8.63
2019-01-30T08:01:29.868Z,8.57
2019-01-30T08:03:58.480Z,9.53
2019-01-30T08:06:27.096Z,8.97
2019-01-30T08:08:55.378Z,8.77
2019-01-30T08:11:23.748Z,9.40
2019-01-30T08:13:52.098Z,9.73
2019-01-30T08:16:21.835Z,9.63
2019-01-30T08:18:50.289Z,9.90
2019-01-30T08:21:18.812Z,9.20
2019-01-30T08:23:47.174Z,9.93
2019-01-30T08:26:15.920Z,8.53
2019-01-30T08:28:44.587Z,8.87
2019-01-30T08:31:13.016Z,9.83
2019-01-30T08:33:41.467Z,9.83
2019-01-30T08:36:09.837Z,9.37
2019-01-30T08:38:38.114Z,9.27
2019-01-30T08:41:06.732Z,9.53
2019-01-30T08:43:35.015Z,9.13
2019-01-30T08:46:03.282Z,9.77
2019-01-30T08:48:31.953Z,9.27
2019-01-30T08:51:00.229Z,9.27
2019-01-30T08:53:28.546Z,8.83
2019-01-30T08:55:57.036Z,9.00
2019-01-30T08:58:25.341Z,8.80
2019-01-30T09:00:53.621Z,8.97
2019-01-30T09:03:21.907Z,8.20
2019-01-30T09:05:50.440Z,9.30
2019-01-30T09:08:18.921Z,8.63
2019-01-30T09:10:47.450Z,8.30
2019-01-30T09:13:15.746Z,8.80
2019-01-30T09:15:44.277Z,9.50
2019-01-30T09:18:12.725Z,9.10
2019-01-30T09:20:41.247Z,8.87
2019-01-30T09:23:09.547Z,8.67
2019-01-30T09:25:38.079Z,8.37
2019-01-30T09:28:06.644Z,8.80
2019-01-30T09:30:37.429Z,9.17
2019-01-30T09:33:07.062Z,8.83
2019-01-30T09:35:35.354Z,8.57
2019-01-30T09:38:03.655Z,9.00
2019-01-30T09:40:32.225Z,8.83
2019-01-30T09:43:01.134Z,8.80
2019-01-30T09:45:29.380Z,8.07
2019-01-30T09:47:57.792Z,8.60
2019-01-30T09:50:26.465Z,8.57
2019-01-30T09:52:54.978Z,8.87
2019-01-30T09:55:23.581Z,7.90
2019-01-30T09:57:51.861Z,8.37
2019-01-30T10:00:34.548Z,7.87
2019-01-30T10:03:02.914Z,8.63
2019-01-30T10:05:31.260Z,8.40
2019-01-30T10:07:59.608Z,8.53
2019-01-30T10:10:36.073Z,8.60
2019-01-30T10:13:05.492Z,8.40
2019-01-30T10:15:39.678Z,8.60
2019-01-30T10:18:08.442Z,8.63
2019-01-30T10:20:38.227Z,8.87
2019-01-30T10:23:06.753Z,8.30
2019-01-30T10:25:35.393Z,9.10
2019-01-30T10:28:04.181Z,9.27
2019-01-30T10:30:38.176Z,8.97
2019-01-30T10:33:06.584Z,8.80
2019-01-30T10:35:34.872Z,8.47
2019-01-30T10:38:03.579Z,9.73
2019-01-30T10:40:32.133Z,10.80
2019-01-30T10:43:00.477Z,9.23
2019-01-30T10:45:28.769Z,9.50
2019-01-30T10:47:57.373Z,10.00
2019-01-30T10:50:28.848Z,10.43
2019-01-30T10:52:57.264Z,9.40
2019-01-30T10:55:27.813Z,11.00
2019-01-30T10:57:57.936Z,10.73
2019-01-30T11:00:29.227Z,10.93
2019-01-30T11:02:57.827Z,10.67
2019-01-30T11:05:26.333Z,10.10
2019-01-30T11:07:54.606Z,11.57
2019-01-30T11:10:22.912Z,11.67
2019-01-30T11:12:51.187Z,11.43
2019-01-30T11:15:25.887Z,11.20
2019-01-30T11:17:54.248Z,11.70
2019-01-30T11:20:22.643Z,12.37
2019-01-30T11:22:53.446Z,12.03
2019-01-30T11:25:23.800Z,13.33
2019-01-30T11:27:52.505Z,11.90
2019-01-30T11:30:21.868Z,12.73
2019-01-30T11:32:50.165Z,13.13
2019-01-30T11:35:18.524Z,12.60
2019-01-30T11:37:46.820Z,12.33
2019-01-30T11:40:17.890Z,13.40
2019-01-30T11:42:46.197Z,12.57
2019-01-30T11:45:17.189Z,13.07
2019-01-30T11:47:45.552Z,12.97
2019-01-30T11:50:16.034Z,12.70
2019-01-30T11:52:44.506Z,13.30
2019-01-30T11:55:15.236Z,12.50
2019-01-30T11:57:43.593Z,12.47
2019-01-30T12:00:16.730Z,11.77
2019-01-30T12:02:47.972Z,12.20
2019-01-30T12:05:16.276Z,14.30
2019-01-30T12:07:44.576Z,14.13
2019-01-30T12:10:14.205Z,13.90
2019-01-30T12:12:42.782Z,13.33
2019-01-30T12:15:16.640Z,14.27
2019-01-30T12:17:45.105Z,14.13
2019-01-30T12:20:13.748Z,13.27
2019-01-30T12:22:42.040Z,13.70
2019-01-30T12:25:13.673Z,12.13
2019-01-30T12:27:42.279Z,15.17
2019-01-30T12:30:21.862Z,15.03
2019-01-30T12:32:50.300Z,15.93
2019-01-30T12:35:18.730Z,15.90
2019-01-30T12:37:47.027Z,13.20
2019-01-30T12:40:18.111Z,14.30
2019-01-30T12:42:46.820Z,15.90
2019-01-30T12:45:32.360Z,13.73
2019-01-30T12:48:00.959Z,14.07
2019-01-30T12:50:29.382Z,15.07
2019-01-30T12:52:57.925Z,15.10
2019-01-30T12:55:26.218Z,14.47
2019-01-30T12:57:54.651Z,14.93
2019-01-30T13:00:26.342Z,14.60
2019-01-30T13:02:54.645Z,13.60
2019-01-30T13:05:25.315Z,13.13
2019-01-30T13:07:53.606Z,12.33
2019-01-30T13:10:21.893Z,15.67
2019-01-30T13:12:50.264Z,13.63
2019-01-30T13:15:21.440Z,13.77
2019-01-30T13:17:49.809Z,13.27
2019-01-30T13:20:20.672Z,14.60
2019-01-30T13:22:49.850Z,14.17
2019-01-30T13:25:21.069Z,14.53
2019-01-30T13:27:49.613Z,14.67
2019-01-30T13:30:25.633Z,13.93
2019-01-30T13:32:53.889Z,13.83
2019-01-30T13:35:22.330Z,13.47
2019-01-30T13:37:51.284Z,14.70
2019-01-30T13:40:30.314Z,14.77
2019-01-30T13:42:58.668Z,14.60
2019-01-30T13:45:27.903Z,13.43
2019-01-30T13:47:56.445Z,14.60
2019-01-30T13:50:26.667Z,13.77
2019-01-30T13:52:55.015Z,15.17
2019-01-30T13:55:23.745Z,14.20
2019-01-30T13:57:52.088Z,15.00
2019-01-30T14:00:26.007Z,14.47
2019-01-30T14:02:54.287Z,14.10
2019-01-30T14:05:22.680Z,14.73
2019-01-30T14:07:51.082Z,13.07
2019-01-30T14:10:19.653Z,15.27
2019-01-30T14:12:47.890Z,14.33
2019-01-30T14:15:24.791Z,15.23
2019-01-30T14:17:53.214Z,14.90
2019-01-30T14:20:22.116Z,15.13
2019-01-30T14:22:50.521Z,15.77
2019-01-30T14:25:18.855Z,15.97
2019-01-30T14:27:47.449Z,16.27
2019-01-30T14:30:33.374Z,17.20
2019-01-30T14:33:01.647Z,17.70
2019-01-30T14:35:31.669Z,18.40
2019-01-30T14:38:00.068Z,18.20
2019-01-30T14:40:28.423Z,19.83
2019-01-30T14:42:57.032Z,20.43
2019-01-30T14:45:25.315Z,18.57
2019-01-30T14:47:54.011Z,17.97
2019-01-30T14:50:26.970Z,18.47
2019-01-30T14:52:56.218Z,19.33
2019-01-30T14:55:24.624Z,20.30
2019-01-30T14:57:54.530Z,19.17
2019-01-30T15:00:30.941Z,19.23
2019-01-30T15:02:59.301Z,18.87
2019-01-30T15:05:28.209Z,19.30
2019-01-30T15:07:56.510Z,19.70
2019-01-30T15:10:26.750Z,19.90
2019-01-30T15:12:57.693Z,19.73
2019-01-30T15:15:30.935Z,19.00
2019-01-30T15:17:59.482Z,19.17
2019-01-30T15:20:30.583Z,19.83
2019-01-30T15:22:59.426Z,19.33
2019-01-30T15:25:27.849Z,19.60
2019-01-30T15:27:56.591Z,20.17
2019-01-30T15:30:27.908Z,19.60
2019-01-30T15:32:56.281Z,20.20
2019-01-30T15:35:33.106Z,20.30
2019-01-30T15:37:54.988Z,21.30
2019-01-30T15:40:25.984Z,20.90
2019-01-30T15:42:54.355Z,20.40
2019-01-30T15:45:24.485Z,19.37
2019-01-30T15:47:52.787Z,19.40
2019-01-30T15:50:23.778Z,18.67
2019-01-30T15:52:52.339Z,18.23
2019-01-30T15:55:20.601Z,18.10
2019-01-30T15:58:00.010Z,22.57
2019-01-30T16:00:40.311Z,24.70
2019-01-30T16:03:08.658Z,20.43
2019-01-30T16:05:44.426Z,19.43
2019-01-30T16:08:07.097Z,18.87
2019-01-30T16:10:35.813Z,18.57
2019-01-30T16:13:04.545Z,18.37
2019-01-30T16:15:38.722Z,19.57
2019-01-30T16:18:07.274Z,20.27
2019-01-30T16:20:35.595Z,20.43
2019-01-30T16:23:04.591Z,21.23
2019-01-30T16:25:32.897Z,22.67
2019-01-30T16:28:01.474Z,22.60
2019-01-30T16:30:29.772Z,25.30
2019-01-30T16:32:58.128Z,25.33
2019-01-30T16:35:29.235Z,27.03
2019-01-30T16:37:57.517Z,26.67
2019-01-30T16:40:25.824Z,28.30
2019-01-30T16:42:54.530Z,28.23
2019-01-30T16:45:25.418Z,27.43
2019-01-30T16:47:53.707Z,28.77
2019-01-30T16:50:22.503Z,29.63
2019-01-30T16:52:51.163Z,28.73
2019-01-30T16:55:28.838Z,29.07
2019-01-30T16:57:57.125Z,28.87
2019-01-30T17:00:30.309Z,29.57
2019-01-30T17:02:58.691Z,28.53
2019-01-30T17:05:27.533Z,28.83
2019-01-30T17:07:57.806Z,28.27
2019-01-30T17:10:26.193Z,29.30
2019-01-30T17:12:55.123Z,30.70
2019-01-30T17:15:37.818Z,29.17
2019-01-30T17:18:07.139Z,28.40
2019-01-30T17:20:37.767Z,31.73
2019-01-30T17:23:06.598Z,31.43
2019-01-30T17:25:36.100Z,32.87
2019-01-30T17:28:05.794Z,32.83
2019-01-30T17:30:42.049Z,33.07
2019-01-30T17:33:10.364Z,36.37
2019-01-30T17:35:39.853Z,42.33
2019-01-30T17:38:08.377Z,41.90
2019-01-30T17:40:37.000Z,39.07
2019-01-30T17:43:05.485Z,35.20
2019-01-30T17:45:35.296Z,35.00
2019-01-30T17:48:04.158Z,35.20
2019-01-30T17:50:34.512Z,36.27
2019-01-30T17:53:02.966Z,36.30
2019-01-30T17:55:31.256Z,35.60
2019-01-30T17:57:59.620Z,37.93
2019-01-30T18:00:38.377Z,34.87
2019-01-30T18:03:06.695Z,38.90
2019-01-30T18:05:35.106Z,39.33
2019-01-30T18:08:03.388Z,55.70
2019-01-30T18:10:31.714Z,40.37
2019-01-30T18:13:00.255Z,38.23
2019-01-30T18:15:29.236Z,81.17
2019-01-30T18:18:03.933Z,41.47
2019-01-30T18:20:32.249Z,39.03
2019-01-30T18:23:00.549Z,36.77
2019-01-30T18:25:28.865Z,37.83
2019-01-30T18:27:57.151Z,36.50
2019-01-30T18:30:25.502Z,36.47
2019-01-30T18:32:56.485Z,35.83
2019-01-30T18:35:25.023Z,35.70
2019-01-30T18:37:53.326Z,34.73
2019-01-30T18:40:30.866Z,35.77
2019-01-30T18:42:59.226Z,33.43
2019-01-30T18:45:28.612Z,32.40
2019-01-30T18:47:57.078Z,33.60
2019-01-30T18:50:27.986Z,41.60
2019-01-30T18:52:56.533Z,50.37
2019-01-30T18:55:25.574Z,32.30
2019-01-30T18:57:54.102Z,31.70
2019-01-30T19:00:39.758Z,30.90
2019-01-30T19:03:10.915Z,29.13
2019-01-30T19:05:39.525Z,28.43
2019-01-30T19:08:07.828Z,29.33
2019-01-30T19:10:36.180Z,28.30
2019-01-30T19:13:05.122Z,29.90
2019-01-30T19:15:33.749Z,29.63
2019-01-30T19:18:02.024Z,29.20
2019-01-30T19:20:36.510Z,29.60
2019-01-30T19:23:20.099Z,30.20
2019-01-30T19:25:48.640Z,31.37
2019-01-30T19:28:17.111Z,31.10
2019-01-30T19:30:45.458Z,28.47
2019-01-30T19:33:13.767Z,29.80
2019-01-30T19:35:43.151Z,28.20
2019-01-30T19:38:11.733Z,27.70
2019-01-30T19:40:40.308Z,25.57
2019-01-30T19:43:08.618Z,24.37
2019-01-30T19:45:36.971Z,23.97
2019-01-30T19:48:05.810Z,22.87
2019-01-30T19:50:34.098Z,22.00
2019-01-30T19:53:05.394Z,21.33
2019-01-30T19:55:32.800Z,20.53
2019-01-30T19:58:01.371Z,20.43
2019-01-30T20:00:35.146Z,19.97
2019-01-30T20:03:07.202Z,20.87
2019-01-30T20:05:35.741Z,20.13
2019-01-30T20:08:04.409Z,20.70
2019-01-30T20:10:35.112Z,20.77
2019-01-30T20:13:03.718Z,18.77
2019-01-30T20:15:32.078Z,19.40
2019-01-30T20:18:00.702Z,20.77
2019-01-30T20:20:29.159Z,19.37
2019-01-30T20:22:57.792Z,18.87
2019-01-30T20:25:32.312Z,18.73
2019-01-30T20:28:00.699Z,18.33
2019-01-30T20:30:29.067Z,17.97
2019-01-30T20:32:57.710Z,18.00
2019-01-30T20:35:25.996Z,18.73
2019-01-30T20:37:54.301Z,19.40
2019-01-30T20:40:24.792Z,18.07
2019-01-30T20:42:53.422Z,17.53
2019-01-30T20:45:32.988Z,17.73
2019-01-30T20:47:51.805Z,17.37
2019-01-30T20:50:27.862Z,18.33
2019-01-30T20:52:56.305Z,17.70
2019-01-30T20:55:25.265Z,18.13
2019-01-30T20:57:53.553Z,16.37
2019-01-30T21:00:27.685Z,17.10
2019-01-30T21:02:56.314Z,18.63
2019-01-30T21:05:24.617Z,18.37
2019-01-30T21:07:53.026Z,18.50
2019-01-30T21:10:26.791Z,18.67
2019-01-30T21:12:55.432Z,18.53
2019-01-30T21:15:23.994Z,19.20
2019-01-30T21:17:52.389Z,19.60
2019-01-30T21:20:20.741Z,19.07
2019-01-30T21:22:49.108Z,19.87
2019-01-30T21:25:19.565Z,19.83
2019-01-30T21:27:48.419Z,19.33
2019-01-30T21:30:27.708Z,19.73
2019-01-30T21:32:56.088Z,19.90
2019-01-30T21:35:24.445Z,19.57
2019-01-30T21:37:52.818Z,19.50
2019-01-30T21:40:21.277Z,21.30
2019-01-30T21:42:49.830Z,19.80
2019-01-30T21:45:26.059Z,19.40
2019-01-30T21:47:54.419Z,20.13
2019-01-30T21:50:23.128Z,19.53
2019-01-30T21:52:51.862Z,19.23
2019-01-30T21:55:22.182Z,19.30
2019-01-30T21:57:50.599Z,19.37
2019-01-30T22:00:21.497Z,19.80
2019-01-30T22:02:49.862Z,21.73
2019-01-30T22:05:18.150Z,20.00
2019-01-30T22:07:46.443Z,19.50
2019-01-30T22:10:17.984Z,20.47
2019-01-30T22:12:46.354Z,20.00
2019-01-30T22:15:16.585Z,19.47
2019-01-30T22:17:44.946Z,17.03
2019-01-30T22:20:16.241Z,16.70
2019-01-30T22:22:44.692Z,17.10
2019-01-30T22:25:20.463Z,17.97
2019-01-30T22:27:45.893Z,16.17
2019-01-30T22:30:17.647Z,16.10
2019-01-30T22:32:46.273Z,15.57
2019-01-30T22:35:14.576Z,15.63
2019-01-30T22:37:42.872Z,15.63
2019-01-30T22:40:13.404Z,13.27
2019-01-30T22:42:42.088Z,13.40
2019-01-30T22:45:18.734Z,12.97
2019-01-30T22:47:47.272Z,12.67
2019-01-30T22:50:17.895Z,11.63
2019-01-30T22:52:46.426Z,12.07
2019-01-30T22:55:17.179Z,11.87
2019-01-30T22:57:45.598Z,11.93
2019-01-30T23:00:26.241Z,11.77
2019-01-30T23:02:54.598Z,11.70
2019-01-30T23:05:32.434Z,12.20
2019-01-30T23:08:01.126Z,12.43
2019-01-30T23:10:38.208Z,13.20
2019-01-30T23:13:09.930Z,12.07
2019-01-30T23:15:47.140Z,10.97
2019-01-30T23:18:42.679Z,11.23
2019-01-30T23:21:19.894Z,10.60
2019-01-30T23:24:21.529Z,9.90
2019-01-30T23:26:58.960Z,9.50
2019-01-30T23:30:03.897Z,9.43
2019-01-30T23:32:50.100Z,8.07
2019-01-30T23:35:24.679Z,8.60
2019-01-30T23:38:08.332Z,7.70
2019-01-30T23:40:42.809Z,7.87
2019-01-30T23:43:29.104Z,7.40
2019-01-30T23:46:09.397Z,7.47
2019-01-30T23:48:57.353Z,6.50
2019-01-30T23:51:31.337Z,7.23
2019-01-30T23:54:17.724Z,6.57
2019-01-30T23:56:52.114Z,6.70
2019-01-30T23:59:26.244Z,6.07
